Monday, December 5, 2016, 11:31 AM EST

KPHF, Williamsburg International Airport

Location: Newport News, VA, United States Lat: 37.133
Local Time: 11:31 AM EST (16:31 GMT) Lon: -76.5
Time Zone: US/Eastern Elev: 42 ft

Show me the last for .
Show Decoded

2016-12-05 11:25 METAR KPHF 051625Z 33006KT 10SM OVC005 09/08 A3002 RMK AO2 CIG 004V009 T00940078
                 =
2016-12-05 10:54 METAR KPHF 051554Z 31005KT 8SM OVC003 08/08 A3002 RMK AO2 SLP165 T00830078 =
2016-12-05 10:16 METAR KPHF 051516Z 31006KT 3SM BR OVC002 08/07 A3001 RMK AO2 T00780072 =
2016-12-05 10:01 METAR KPHF 051501Z 31005KT 1 1/4SM BR OVC002 08/07 A3001 RMK AO2 T00780072 =
2016-12-05 09:54 METAR KPHF 051454Z 31006KT 3SM BR OVC002 08/07 A3001 RMK AO2 SLP162 60000
                 T00780072 53003 =
2016-12-05 08:54 METAR KPHF 051354Z 33003KT 5SM BR OVC002 08/07 A2999 RMK AO2 SLP154 T00780072 =
2016-12-05 08:10 METAR KPHF 051310Z 02004KT 7SM BKN003 OVC032 07/07 A2998 RMK AO2 T00720067 =
2016-12-05 07:54 METAR KPHF 051254Z 00000KT 8SM SCT003 OVC032 07/07 A2998 RMK AO2 RAB1155E05
                 SLP152 P0000 T00720067 =
2016-12-05 06:54 METAR KPHF 051154Z 35003KT 5SM BR FEW005 SCT029 OVC034 07/07 A3000 RMK AO2
                 SLP160 60033 70038 T00670067 10067 20061 58005 =
2016-12-05 06:11 METAR KPHF 051111Z 02003KT 6SM BR SCT028 OVC037 07/06 A3000 RMK AO2 T00670061 =
2016-12-05 05:54 METAR KPHF 051054Z 35004KT 6SM BR BKN029 OVC037 07/06 A3002 RMK AO2 RAE46 SLP166
                 P0001 T00670061 =
2016-12-05 04:54 METAR KPHF 050954Z 00000KT 4SM -RA BR OVC031 07/06 A3002 RMK AO2 SLP165 P0006
                 T00670061 =
2016-12-05 04:10 METAR KPHF 050910Z 36003KT 3SM RA BR FEW015 OVC033 07/06 A3003 RMK AO2 P0003
                 T00670061 =
2016-12-05 03:57 METAR KPHF 050857Z 36003KT 2 1/2SM RA BR FEW016 OVC031 07/06 A3003 =
2016-12-05 03:54 METAR KPHF 050854Z 36004KT 3SM -RA BR FEW016 OVC029 07/06 A3003 RMK AO2 SLP168
                 P0010 60026 T00670061 58013 =
2016-12-05 03:38 METAR KPHF 050838Z 04003KT 2SM RA BR FEW007 SCT013 OVC023 07/06 A3003 RMK AO2
                 PRESFR P0009 T00670061 =
2016-12-05 03:13 METAR KPHF 050813Z 01004KT 2 1/2SM RA BR SCT006 OVC013 07/06 A3004 RMK AO2 P0003
                 T00670061 =
2016-12-05 02:54 METAR KPHF 050754Z 00000KT 2SM RA BR BKN008 OVC012 07/06 A3005 RMK AO2 SLP177
                 P0011 T00670061 =
2016-12-05 02:27 METAR KPHF 050727Z 15003KT 2 1/2SM RA BR BKN006 OVC012 07/06 A3006 RMK AO2 CIG
                 004V010 P0005 T00670061 =
2016-12-05 01:54 METAR KPHF 050654Z 17004KT 3SM -RA BR OVC006 07/06 A3005 RMK AO2 CIG 004V011
                 SLP177 P0005 T00670061 =
2016-12-05 01:37 METAR KPHF 050637Z 15005KT 3SM -RA BR BKN006 BKN012 OVC018 06/06 A3005 RMK AO2
                 P0004 T00610056 =
2016-12-05 01:28 METAR KPHF 050628Z 14005KT 3SM RA BR SCT006 BKN013 OVC019 06/06 A3006 RMK AO2
                 P0003 T00610056 =
2016-12-05 00:54 METAR KPHF 050554Z 11006KT 4SM -RA BR FEW006 BKN026 OVC032 06/05 A3007 RMK AO2
                 SLP181 P0004 60005 T00610050 10067 20056 58033 =
2016-12-05 00:35 METAR KPHF 050535Z 12005KT 3SM RA BR FEW008 SCT015 OVC028 06/05 A3008 RMK AO2
                 P0002 T00610050 =
2016-12-05 00:27 METAR KPHF 050527Z 12006KT 2 1/2SM -RA BR SCT008 BKN015 OVC031 06/05 A3008 RMK
                 AO2 P0001 T00610050 =
2016-12-05 00:09 METAR KPHF 050509Z 13006KT 3SM -RA BR FEW008 SCT019 OVC033 06/06 A3010 RMK AO2
                 P0000 T00610056 =
2016-12-04 23:54 METAR KPHF 050454Z 12004KT 3SM -RA BR FEW020 OVC033 07/06 A3011 RMK AO2 RAB0359
                 SLP197 P0001 T00670056 400781006 =
2016-12-04 22:54 METAR KPHF 050354Z 12003KT 7SM OVC039 07/05 A3014 RMK AO2 RAE11 SLP207 P0000
                 T00670050 =
2016-12-04 21:54 METAR KPHF 050254Z 10004KT 8SM -RA OVC044 06/04 A3016 RMK AO2 SLP214 P0000 60000
                 T00610044 58012 =
2016-12-04 20:54 METAR KPHF 050154Z 00000KT 10SM -RA BKN070 OVC090 06/04 A3018 RMK AO2 RAB0059
                 SLP219 P0000 T00610044 =
2016-12-04 19:54 METAR KPHF 050054Z 00000KT 10SM SCT055 OVC080 06/03 A3020 RMK AO2 SLP225
                 T00610028 =
2016-12-04 18:54 METAR KPHF 042354Z 08003KT 10SM BKN090 BKN110 06/02 A3020 RMK AO2 SLP226
                 T00610017 10078 20061 56011 =
2016-12-04 17:54 METAR KPHF 042254Z 00000KT 10SM FEW100 OVC120 07/02 A3021 RMK AO2 SLP229
                 T00670017 =
2016-12-04 16:54 METAR KPHF 042154Z 00000KT 10SM BKN110 07/00 A3021 RMK AO2 SLP229 T00720000 =
2016-12-04 15:54 METAR KPHF 042054Z 00000KT 10SM FEW075 OVC100 08/M01 A3023 RMK AO2 SLP237
                 T00781011 58008 =
2016-12-04 14:54 METAR KPHF 041954Z 00000KT 10SM FEW080 08/00 A3024 RMK AO2 SLP240 T00780000 =
2016-12-04 13:54 METAR KPHF 041854Z 00000KT 10SM FEW120 08/00 A3025 RMK AO2 SLP242 T00780000 =
2016-12-04 12:54 METAR KPHF 041754Z VRB03KT 10SM CLR 07/00 A3025 RMK AO2 SLP244 T00720000 10078
                 20028 56019 =
2016-12-04 11:54 METAR KPHF 041654Z 00000KT 10SM CLR 07/01 A3027 RMK AO2 SLP251 T00720006 =

Support USWX by starting your Amazon purchase here.